sensor_id;sensor_type;location;lat;lon;timestamp;pressure;altitude;pressure_sealevel;temperature;humidity
76611;BME280;65503;48.534;9.062;2023-04-29T00:00:03;96717.19;;;15.32;74.49
76611;BME280;65503;48.534;9.062;2023-04-29T00:02:32;96715.59;;;15.21;74.19
76611;BME280;65503;48.534;9.062;2023-04-29T00:04:59;96716.94;;;15.18;74.20
76611;BME280;65503;48.534;9.062;2023-04-29T00:07:26;96702.88;;;15.13;74.65
76611;BME280;65503;48.534;9.062;2023-04-29T00:09:53;96707.13;;;15.19;74.51
76611;BME280;65503;48.534;9.062;2023-04-29T00:12:19;96702.88;;;15.23;75.53
76611;BME280;65503;48.534;9.062;2023-04-29T00:14:46;96698.63;;;15.27;74.70
76611;BME280;65503;48.534;9.062;2023-04-29T00:17:12;96703.41;;;15.25;74.74
76611;BME280;65503;48.534;9.062;2023-04-29T00:19:39;96701.56;;;15.25;74.38
76611;BME280;65503;48.534;9.062;2023-04-29T00:22:06;96698.63;;;15.17;74.27
76611;BME280;65503;48.534;9.062;2023-04-29T00:24:32;96696.53;;;15.09;74.31
76611;BME280;65503;48.534;9.062;2023-04-29T00:26:59;96697.28;;;14.99;74.07
76611;BME280;65503;48.534;9.062;2023-04-29T00:29:27;96699.94;;;14.94;74.04
76611;BME280;65503;48.534;9.062;2023-04-29T00:31:54;96700.19;;;14.87;74.25
76611;BME280;65503;48.534;9.062;2023-04-29T00:34:20;96694.88;;;14.87;74.36
76611;BME280;65503;48.534;9.062;2023-04-29T00:36:47;96697.81;;;14.86;73.64
76611;BME280;65503;48.534;9.062;2023-04-29T00:39:14;96695.94;;;14.71;73.56
76611;BME280;65503;48.534;9.062;2023-04-29T00:41:40;96697.53;;;14.72;74.54
76611;BME280;65503;48.534;9.062;2023-04-29T00:44:07;96697.53;;;14.72;74.76
76611;BME280;65503;48.534;9.062;2023-04-29T00:46:35;96704.41;;;14.73;74.26
76611;BME280;65503;48.534;9.062;2023-04-29T00:49:02;96706.00;;;14.69;74.46
76611;BME280;65503;48.534;9.062;2023-04-29T00:51:29;96709.72;;;14.73;74.99
76611;BME280;65503;48.534;9.062;2023-04-29T00:53:56;96710.78;;;14.77;75.63
76611;BME280;65503;48.534;9.062;2023-04-29T00:56:22;96709.19;;;14.81;74.98
76611;BME280;65503;48.534;9.062;2023-04-29T00:58:50;96709.19;;;14.76;74.57
76611;BME280;65503;48.534;9.062;2023-04-29T01:01:18;96718.72;;;14.72;73.65
76611;BME280;65503;48.534;9.062;2023-04-29T01:03:45;96705.44;;;14.57;73.59
76611;BME280;65503;48.534;9.062;2023-04-29T01:11:39;96706.09;;;14.27;74.25
76611;BME280;65503;48.534;9.062;2023-04-29T01:14:11;96706.91;;;14.28;74.45
76611;BME280;65503;48.534;9.062;2023-04-29T01:16:44;96707.16;;;14.31;74.56
76611;BME280;65503;48.534;9.062;2023-04-29T01:19:47;96710.06;;;14.30;74.39
76611;BME280;65503;48.534;9.062;2023-04-29T01:22:12;96708.50;;;14.29;73.94
76611;BME280;65503;48.534;9.062;2023-04-29T01:24:43;96702.41;;;14.28;74.40
76611;BME280;65503;48.534;9.062;2023-04-29T01:27:20;96701.13;;;14.41;74.78
76611;BME280;65503;48.534;9.062;2023-04-29T01:29:55;96704.91;;;14.55;75.51
76611;BME280;65503;48.534;9.062;2023-04-29T01:32:45;96703.06;;;14.66;74.85
76611;BME280;65503;48.534;9.062;2023-04-29T01:38:28;96706.38;;;14.36;73.55
76611;BME280;65503;48.534;9.062;2023-04-29T01:41:12;96695.25;;;14.24;73.42
76611;BME280;65503;48.534;9.062;2023-04-29T01:43:40;96707.63;;;14.13;73.04
76611;BME280;65503;48.534;9.062;2023-04-29T01:46:08;96691.94;;;14.01;73.46
76611;BME280;65503;48.534;9.062;2023-04-29T01:48:36;96691.91;;;13.91;73.57
76611;BME280;65503;48.534;9.062;2023-04-29T01:51:03;96703.25;;;13.87;73.11
76611;BME280;65503;48.534;9.062;2023-04-29T01:53:31;96702.38;;;13.71;73.54
76611;BME280;65503;48.534;9.062;2023-04-29T01:55:58;96706.81;;;13.60;74.33
76611;BME280;65503;48.534;9.062;2023-04-29T01:58:24;96710.22;;;13.56;74.63
76611;BME280;65503;48.534;9.062;2023-04-29T02:00:51;96703.88;;;13.57;74.84
76611;BME280;65503;48.534;9.062;2023-04-29T02:03:17;96707.63;;;13.61;74.48
76611;BME280;65503;48.534;9.062;2023-04-29T02:05:44;96704.44;;;13.59;74.01
76611;BME280;65503;48.534;9.062;2023-04-29T02:08:11;96713.94;;;13.55;74.16
76611;BME280;65503;48.534;9.062;2023-04-29T02:10:38;96705.44;;;13.53;73.71
76611;BME280;65503;48.534;9.062;2023-04-29T02:13:04;96705.66;;;13.46;74.11
76611;BME280;65503;48.534;9.062;2023-04-29T02:15:30;96709.06;;;13.42;74.73
76611;BME280;65503;48.534;9.062;2023-04-29T02:17:57;96707.47;;;13.41;74.59
76611;BME280;65503;48.534;9.062;2023-04-29T02:20:23;96702.38;;;13.34;74.42
76611;BME280;65503;48.534;9.062;2023-04-29T02:22:50;96706.34;;;13.32;74.04
76611;BME280;65503;48.534;9.062;2023-04-29T02:25:17;96702.13;;;13.31;74.11
76611;BME280;65503;48.534;9.062;2023-04-29T02:27:43;96700.75;;;13.28;73.86
76611;BME280;65503;48.534;9.062;2023-04-29T02:30:10;96705.22;;;13.22;73.45
76611;BME280;65503;48.534;9.062;2023-04-29T02:32:37;96704.66;;;13.15;74.20
76611;BME280;65503;48.534;9.062;2023-04-29T02:35:05;96702.53;;;13.17;73.97
76611;BME280;65503;48.534;9.062;2023-04-29T02:37:32;96701.91;;;13.10;74.64
76611;BME280;65503;48.534;9.062;2023-04-29T02:39:58;96700.56;;;13.08;74.29
76611;BME280;65503;48.534;9.062;2023-04-29T02:42:25;96697.94;;;13.08;74.27
76611;BME280;65503;48.534;9.062;2023-04-29T02:44:51;96704.50;;;13.05;74.45
76611;BME280;65503;48.534;9.062;2023-04-29T02:47:18;96702.69;;;13.11;74.68
76611;BME280;65503;48.534;9.062;2023-04-29T02:49:44;96703.84;;;13.15;74.54
76611;BME280;65503;48.534;9.062;2023-04-29T02:52:10;96703.59;;;13.21;74.25
76611;BME280;65503;48.534;9.062;2023-04-29T02:54:38;96703.31;;;13.18;74.34
76611;BME280;65503;48.534;9.062;2023-04-29T02:57:04;96700.94;;;13.16;74.64
76611;BME280;65503;48.534;9.062;2023-04-29T02:59:31;96701.44;;;13.13;74.91
76611;BME280;65503;48.534;9.062;2023-04-29T03:01:57;96709.38;;;13.13;74.83
76611;BME280;65503;48.534;9.062;2023-04-29T03:04:24;96703.84;;;13.15;74.12
76611;BME280;65503;48.534;9.062;2023-04-29T03:06:51;96705.13;;;13.12;74.23
76611;BME280;65503;48.534;9.062;2023-04-29T03:09:18;96709.94;;;13.15;73.86
76611;BME280;65503;48.534;9.062;2023-04-29T03:11:44;96701.72;;;13.17;73.94
76611;BME280;65503;48.534;9.062;2023-04-29T03:14:10;96708.34;;;13.14;73.84
76611;BME280;65503;48.534;9.062;2023-04-29T03:16:37;96701.44;;;13.13;73.96
76611;BME280;65503;48.534;9.062;2023-04-29T03:19:04;96704.34;;;13.12;74.87
76611;BME280;65503;48.534;9.062;2023-04-29T03:21:30;96705.13;;;13.12;74.37
76611;BME280;65503;48.534;9.062;2023-04-29T03:23:57;96705.31;;;13.06;74.80
76611;BME280;65503;48.534;9.062;2023-04-29T03:26:24;96709.31;;;13.08;74.76
76611;BME280;65503;48.534;9.062;2023-04-29T03:28:50;96701.34;;;13.03;74.73
76611;BME280;65503;48.534;9.062;2023-04-29T03:31:17;96697.63;;;13.04;74.75
76611;BME280;65503;48.534;9.062;2023-04-29T03:33:46;96704.50;;;13.05;74.73
76611;BME280;65503;48.534;9.062;2023-04-29T03:36:12;96703.22;;;13.08;74.77
76611;BME280;65503;48.534;9.062;2023-04-29T03:38:39;96704.50;;;13.05;74.78
76611;BME280;65503;48.534;9.062;2023-04-29T03:41:05;96705.81;;;13.03;74.97
76611;BME280;65503;48.534;9.062;2023-04-29T03:43:32;96699.75;;;13.02;74.93
76611;BME280;65503;48.534;9.062;2023-04-29T03:45:59;96701.34;;;13.03;75.20
76611;BME280;65503;48.534;9.062;2023-04-29T03:48:26;96690.25;;;13.06;75.48
76611;BME280;65503;48.534;9.062;2023-04-29T03:50:52;96689.28;;;13.12;75.04
76611;BME280;65503;48.534;9.062;2023-04-29T03:53:19;96684.84;;;13.18;75.15
76611;BME280;65503;48.534;9.062;2023-04-29T03:55:46;96689.56;;;13.16;75.12
76611;BME280;65503;48.534;9.062;2023-04-29T03:58:13;96687.72;;;13.16;74.62
76611;BME280;65503;48.534;9.062;2023-04-29T04:00:40;96689.28;;;13.12;74.94
76611;BME280;65503;48.534;9.062;2023-04-29T04:03:06;96691.97;;;13.17;74.87
76611;BME280;65503;48.534;9.062;2023-04-29T04:05:34;96692.72;;;13.13;75.58
76611;BME280;65503;48.534;9.062;2023-04-29T04:08:00;96687.75;;;13.21;75.48
76611;BME280;65503;48.534;9.062;2023-04-29T04:10:27;96688.88;;;13.26;75.43
76611;BME280;65503;48.534;9.062;2023-04-29T04:12:53;96692.03;;;13.28;75.43
76611;BME280;65503;48.534;9.062;2023-04-29T04:15:20;96701.59;;;13.34;75.22
76611;BME280;65503;48.534;9.062;2023-04-29T04:17:47;96695.22;;;13.30;75.40
76611;BME280;65503;48.534;9.062;2023-04-29T04:20:14;96698.44;;;13.32;74.87
76611;BME280;65503;48.534;9.062;2023-04-29T04:22:41;96707.41;;;13.31;75.12
76611;BME280;65503;48.534;9.062;2023-04-29T04:25:08;96700.78;;;13.33;75.32
76611;BME280;65503;48.534;9.062;2023-04-29T04:27:34;96706.38;;;13.37;75.24
76611;BME280;65503;48.534;9.062;2023-04-29T04:30:01;96717.25;;;13.40;75.19
76611;BME280;65503;48.534;9.062;2023-04-29T04:32:27;96713.81;;;13.45;75.18
76611;BME280;65503;48.534;9.062;2023-04-29T04:34:54;96724.94;;;13.42;75.15
76611;BME280;65503;48.534;9.062;2023-04-29T04:37:20;96724.44;;;13.50;74.68
76611;BME280;65503;48.534;9.062;2023-04-29T04:39:46;96728.19;;;13.54;74.50
76611;BME280;65503;48.534;9.062;2023-04-29T04:42:13;96723.91;;;13.48;74.82
76611;BME280;65503;48.534;9.062;2023-04-29T04:44:39;96736.38;;;13.52;74.85
76611;BME280;65503;48.534;9.062;2023-04-29T04:47:06;96732.47;;;13.60;74.67
76611;BME280;65503;48.534;9.062;2023-04-29T04:49:32;96739.34;;;13.61;75.04
76611;BME280;65503;48.534;9.062;2023-04-29T04:51:59;96743.06;;;13.65;75.39
76611;BME280;65503;48.534;9.062;2023-04-29T04:54:26;96743.13;;;13.75;74.99
76611;BME280;65503;48.534;9.062;2023-04-29T04:56:52;96745.06;;;13.90;75.07
76611;BME280;65503;48.534;9.062;2023-04-29T04:59:18;96745.88;;;13.95;74.80
76611;BME280;65503;48.534;9.062;2023-04-29T05:01:46;96759.19;;;14.05;74.54
76611;BME280;65503;48.534;9.062;2023-04-29T05:04:12;96759.78;;;14.18;74.80
76611;BME280;65503;48.534;9.062;2023-04-29T05:06:40;96757.44;;;14.26;75.11
76611;BME280;65503;48.534;9.062;2023-04-29T05:09:07;96757.28;;;14.43;74.83
76611;BME280;65503;48.534;9.062;2023-04-29T05:11:34;96764.75;;;14.56;74.74
76611;BME280;65503;48.534;9.062;2023-04-29T05:14:00;96761.88;;;14.63;74.14
76611;BME280;65503;48.534;9.062;2023-04-29T05:16:27;96773.78;;;14.65;74.48
76611;BME280;65503;48.534;9.062;2023-04-29T05:18:53;96776.44;;;14.75;74.92
76611;BME280;65503;48.534;9.062;2023-04-29T05:21:20;96780.47;;;14.88;74.28
76611;BME280;65503;48.534;9.062;2023-04-29T05:23:46;96777.88;;;15.03;74.68
76611;BME280;65503;48.534;9.062;2023-04-29T05:26:13;96780.81;;;15.22;74.71
76611;BME280;65503;48.534;9.062;2023-04-29T05:28:39;96791.41;;;15.32;74.09
76611;BME280;65503;48.534;9.062;2023-04-29T05:31:06;96784.56;;;15.61;74.80
76611;BME280;65503;48.534;9.062;2023-04-29T05:33:33;96792.00;;;15.69;74.32
76611;BME280;65503;48.534;9.062;2023-04-29T05:35:59;96798.91;;;15.81;74.38
76611;BME280;65503;48.534;9.062;2023-04-29T05:38:26;96806.81;;;16.01;74.22
76611;BME280;65503;48.534;9.062;2023-04-29T05:40:55;96808.41;;;16.17;74.83
76611;BME280;65503;48.534;9.062;2023-04-29T05:43:24;96810.50;;;16.25;74.82
76611;BME280;65503;48.534;9.062;2023-04-29T05:45:51;96816.34;;;16.32;74.56
76611;BME280;65503;48.534;9.062;2023-04-29T05:48:18;96821.66;;;16.32;74.29
76611;BME280;65503;48.534;9.062;2023-04-29T05:50:44;96825.91;;;16.33;74.64
76611;BME280;65503;48.534;9.062;2023-04-29T05:53:10;96829.59;;;16.37;74.75
76611;BME280;65503;48.534;9.062;2023-04-29T05:55:38;96833.28;;;16.67;75.03
76611;BME280;65503;48.534;9.062;2023-04-29T05:58:05;96832.16;;;16.83;74.64
76611;BME280;65503;48.534;9.062;2023-04-29T06:00:31;96839.75;;;17.05;74.40
76611;BME280;65503;48.534;9.062;2023-04-29T06:02:58;96843.63;;;17.27;73.86
76611;BME280;65503;48.534;9.062;2023-04-29T06:05:25;96852.56;;;17.47;74.15
76611;BME280;65503;48.534;9.062;2023-04-29T06:07:52;96850.97;;;17.46;73.85
76611;BME280;65503;48.534;9.062;2023-04-29T06:10:19;96848.75;;;17.63;72.13
76611;BME280;65503;48.534;9.062;2023-04-29T06:12:45;96860.94;;;17.69;71.31
76611;BME280;65503;48.534;9.062;2023-04-29T06:15:14;96858.81;;;17.71;71.46
76611;BME280;65503;48.534;9.062;2023-04-29T06:17:41;96865.56;;;17.92;69.16
76611;BME280;65503;48.534;9.062;2023-04-29T06:20:08;96858.44;;;18.16;66.31
76611;BME280;65503;48.534;9.062;2023-04-29T06:22:35;96873.72;;;18.35;67.09
76611;BME280;65503;48.534;9.062;2023-04-29T06:25:02;96879.38;;;18.57;65.16
76611;BME280;65503;48.534;9.062;2023-04-29T06:27:29;96881.72;;;18.64;66.10
76611;BME280;65503;48.534;9.062;2023-04-29T06:29:55;96886.59;;;18.80;64.32
76611;BME280;65503;48.534;9.062;2023-04-29T06:32:22;96889.25;;;18.80;63.17
76611;BME280;65503;48.534;9.062;2023-04-29T06:34:49;96887.84;;;19.12;61.43
76611;BME280;65503;48.534;9.062;2023-04-29T06:37:16;96885.97;;;19.31;60.80
76611;BME280;65503;48.534;9.062;2023-04-29T06:39:42;96895.44;;;19.47;60.94
76611;BME280;65503;48.534;9.062;2023-04-29T06:42:09;96898.72;;;19.95;58.57
76611;BME280;65503;48.534;9.062;2023-04-29T06:44:36;96899.34;;;20.06;57.95
76611;BME280;65503;48.534;9.062;2023-04-29T06:47:02;96904.28;;;19.99;57.50
76611;BME280;65503;48.534;9.062;2023-04-29T06:49:29;96900.22;;;20.52;56.60
76611;BME280;65503;48.534;9.062;2023-04-29T06:51:55;96901.81;;;20.81;55.89
76611;BME280;65503;48.534;9.062;2023-04-29T06:54:22;96907.78;;;21.05;56.60
76611;BME280;65503;48.534;9.062;2023-04-29T06:56:48;96907.56;;;21.42;54.79
76611;BME280;65503;48.534;9.062;2023-04-29T06:59:15;96903.88;;;21.88;50.63
76611;BME280;65503;48.534;9.062;2023-04-29T07:01:41;96905.63;;;21.07;50.90
76611;BME280;65503;48.534;9.062;2023-04-29T07:04:10;96908.28;;;21.34;50.45
76611;BME280;65503;48.534;9.062;2023-04-29T07:06:37;96905.19;;;21.55;50.71
76611;BME280;65503;48.534;9.062;2023-04-29T07:09:04;96899.16;;;21.85;50.87
76611;BME280;65503;48.534;9.062;2023-04-29T07:11:30;96895.72;;;21.21;50.09
76611;BME280;65503;48.534;9.062;2023-04-29T07:13:57;96899.97;;;20.35;53.37
76611;BME280;65503;48.534;9.062;2023-04-29T07:16:24;96902.53;;;20.08;52.69
76611;BME280;65503;48.534;9.062;2023-04-29T07:18:51;96911.44;;;20.03;53.77
76611;BME280;65503;48.534;9.062;2023-04-29T07:21:18;96905.00;;;20.83;51.40
76611;BME280;65503;48.534;9.062;2023-04-29T07:23:45;96912.69;;;20.43;50.08
76611;BME280;65503;48.534;9.062;2023-04-29T07:26:12;96918.28;;;19.72;54.05
76611;BME280;65503;48.534;9.062;2023-04-29T07:28:39;96920.75;;;19.26;53.52
76611;BME280;65503;48.534;9.062;2023-04-29T07:31:05;96919.75;;;18.98;56.06
76611;BME280;65503;48.534;9.062;2023-04-29T07:33:33;96921.00;;;18.82;55.90
76611;BME280;65503;48.534;9.062;2023-04-29T07:36:01;96916.56;;;18.72;56.64
76611;BME280;65503;48.534;9.062;2023-04-29T07:38:27;96917.91;;;19.41;55.47
76611;BME280;65503;48.534;9.062;2023-04-29T07:40:55;96929.41;;;19.60;53.46
76611;BME280;65503;48.534;9.062;2023-04-29T07:43:21;96928.13;;;19.34;52.38
76611;BME280;65503;48.534;9.062;2023-04-29T07:45:48;96929.72;;;19.11;53.61
76611;BME280;65503;48.534;9.062;2023-04-29T07:48:14;96930.00;;;19.10;54.33
76611;BME280;65503;48.534;9.062;2023-04-29T07:50:41;96925.38;;;19.39;54.24
76611;BME280;65503;48.534;9.062;2023-04-29T07:53:08;96932.22;;;19.26;55.52
76611;BME280;65503;48.534;9.062;2023-04-29T07:55:36;96929.84;;;19.25;53.44
76611;BME280;65503;48.534;9.062;2023-04-29T07:58:03;96933.47;;;19.10;52.67
76611;BME280;65503;48.534;9.062;2023-04-29T08:00:29;96935.75;;;18.98;55.00
76611;BME280;65503;48.534;9.062;2023-04-29T08:02:56;96937.13;;;18.95;55.87
76611;BME280;65503;48.534;9.062;2023-04-29T08:05:23;96947.31;;;18.88;56.65
76611;BME280;65503;48.534;9.062;2023-04-29T08:07:51;96940.13;;;18.60;55.14
76611;BME280;65503;48.534;9.062;2023-04-29T08:10:18;96937.69;;;18.30;54.56
76611;BME280;65503;48.534;9.062;2023-04-29T08:12:45;96938.38;;;18.11;55.68
76611;BME280;65503;48.534;9.062;2023-04-29T08:15:12;96934.09;;;18.15;57.02
76611;BME280;65503;48.534;9.062;2023-04-29T08:17:39;96947.13;;;18.56;57.61
76611;BME280;65503;48.534;9.062;2023-04-29T08:20:06;96952.13;;;19.76;50.64
76611;BME280;65503;48.534;9.062;2023-04-29T08:22:33;96943.16;;;20.88;49.90
76611;BME280;65503;48.534;9.062;2023-04-29T08:25:00;96945.81;;;20.75;42.13
76611;BME280;65503;48.534;9.062;2023-04-29T08:27:28;96945.84;;;20.42;45.86
76611;BME280;65503;48.534;9.062;2023-04-29T08:29:55;96934.03;;;20.76;41.65
76611;BME280;65503;48.534;9.062;2023-04-29T08:32:21;96940.50;;;22.29;43.98
76611;BME280;65503;48.534;9.062;2023-04-29T08:34:48;96946.84;;;23.73;41.54
76611;BME280;65503;48.534;9.062;2023-04-29T08:37:14;96954.13;;;24.16;41.79
76611;BME280;65503;48.534;9.062;2023-04-29T08:39:43;96945.91;;;23.86;38.33
76611;BME280;65503;48.534;9.062;2023-04-29T08:42:12;96949.06;;;23.88;38.02
76611;BME280;65503;48.534;9.062;2023-04-29T08:44:39;96943.22;;;24.47;40.14
76611;BME280;65503;48.534;9.062;2023-04-29T08:47:07;96944.75;;;24.82;35.33
76611;BME280;65503;48.534;9.062;2023-04-29T08:49:34;96944.25;;;24.80;35.74
76611;BME280;65503;48.534;9.062;2023-04-29T08:52:03;96944.97;;;24.00;35.89
76611;BME280;65503;48.534;9.062;2023-04-29T08:54:30;96940.75;;;22.94;38.54
76611;BME280;65503;48.534;9.062;2023-04-29T08:56:58;96945.78;;;21.34;40.38
76611;BME280;65503;48.534;9.062;2023-04-29T08:59:27;96944.06;;;20.84;42.72
76611;BME280;65503;48.534;9.062;2023-04-29T09:01:55;96941.44;;;20.14;43.60
76611;BME280;65503;48.534;9.062;2023-04-29T09:04:43;96943.38;;;21.19;43.46
76611;BME280;65503;48.534;9.062;2023-04-29T09:07:13;96939.72;;;21.92;41.35
76611;BME280;65503;48.534;9.062;2023-04-29T09:09:40;96942.06;;;22.07;42.93
76611;BME280;65503;48.534;9.062;2023-04-29T09:12:07;96940.19;;;21.94;43.03
76611;BME280;65503;48.534;9.062;2023-04-29T09:14:35;96941.22;;;21.98;41.89
76611;BME280;65503;48.534;9.062;2023-04-29T09:17:01;96938.03;;;21.82;41.95
76611;BME280;65503;48.534;9.062;2023-04-29T09:19:29;96939.47;;;22.69;39.48
76611;BME280;65503;48.534;9.062;2023-04-29T09:21:57;96942.31;;;23.43;37.64
76611;BME280;65503;48.534;9.062;2023-04-29T09:24:27;96938.97;;;24.03;36.58
76611;BME280;65503;48.534;9.062;2023-04-29T09:26:54;96951.94;;;24.01;37.64
76611;BME280;65503;48.534;9.062;2023-04-29T09:29:21;96944.97;;;24.34;37.66
76611;BME280;65503;48.534;9.062;2023-04-29T09:31:47;96952.88;;;23.87;37.96
76611;BME280;65503;48.534;9.062;2023-04-29T09:34:15;96949.88;;;23.24;38.64
76611;BME280;65503;48.534;9.062;2023-04-29T09:36:47;96939.75;;;23.21;39.69
76611;BME280;65503;48.534;9.062;2023-04-29T09:39:21;96948.41;;;23.57;38.58
76611;BME280;65503;48.534;9.062;2023-04-29T09:44:21;96947.44;;;23.05;37.99
76611;BME280;65503;48.534;9.062;2023-04-29T09:46:58;96941.66;;;22.67;39.54
76611;BME280;65503;48.534;9.062;2023-04-29T09:49:29;96947.34;;;23.36;37.21
76611;BME280;65503;48.534;9.062;2023-04-29T09:51:58;96943.22;;;24.04;36.18
76611;BME280;65503;48.534;9.062;2023-04-29T09:54:26;96936.44;;;24.15;34.73
76611;BME280;65503;48.534;9.062;2023-04-29T09:56:57;96941.66;;;25.01;33.99
76611;BME280;65503;48.534;9.062;2023-04-29T09:59:24;96934.44;;;24.93;35.70
76611;BME280;65503;48.534;9.062;2023-04-29T10:01:54;96945.16;;;24.38;34.97
76611;BME280;65503;48.534;9.062;2023-04-29T10:04:23;96944.50;;;23.24;36.72
76611;BME280;65503;48.534;9.062;2023-04-29T10:06:51;96940.56;;;22.90;37.33
76611;BME280;65503;48.534;9.062;2023-04-29T10:09:19;96935.75;;;22.25;39.33
76611;BME280;65503;48.534;9.062;2023-04-29T10:11:49;96934.22;;;21.61;39.94
76611;BME280;65503;48.534;9.062;2023-04-29T10:14:18;96938.91;;;21.56;41.33
76611;BME280;65503;48.534;9.062;2023-04-29T10:16:53;96946.66;;;21.43;40.80
76611;BME280;65503;48.534;9.062;2023-04-29T10:19:25;96937.63;;;21.26;40.29
76611;BME280;65503;48.534;9.062;2023-04-29T10:21:57;96928.72;;;21.30;39.79
76611;BME280;65503;48.534;9.062;2023-04-29T10:24:26;96936.47;;;21.18;39.25
76611;BME280;65503;48.534;9.062;2023-04-29T10:26:53;96930.66;;;20.70;40.47
76611;BME280;65503;48.534;9.062;2023-04-29T10:29:21;96928.38;;;20.91;40.53
76611;BME280;65503;48.534;9.062;2023-04-29T10:31:50;96928.97;;;21.70;38.88
76611;BME280;65503;48.534;9.062;2023-04-29T10:34:18;96932.44;;;22.29;41.10
76611;BME280;65503;48.534;9.062;2023-04-29T10:36:45;96931.84;;;22.54;41.25
76611;BME280;65503;48.534;9.062;2023-04-29T10:39:20;96926.19;;;22.64;41.11
76611;BME280;65503;48.534;9.062;2023-04-29T10:41:49;96925.31;;;22.46;40.68
76611;BME280;65503;48.534;9.062;2023-04-29T10:44:16;96934.53;;;22.32;40.93
76611;BME280;65503;48.534;9.062;2023-04-29T10:46:43;96930.50;;;22.20;41.92
76611;BME280;65503;48.534;9.062;2023-04-29T10:49:10;96929.72;;;21.98;42.48
76611;BME280;65503;48.534;9.062;2023-04-29T10:51:44;96936.03;;;21.88;42.29
76611;BME280;65503;48.534;9.062;2023-04-29T10:54:15;96932.88;;;21.86;43.44
76611;BME280;65503;48.534;9.062;2023-04-29T10:56:46;96933.47;;;22.41;42.56
76611;BME280;65503;48.534;9.062;2023-04-29T10:59:14;96929.69;;;22.95;41.17
76611;BME280;65503;48.534;9.062;2023-04-29T11:01:45;96925.94;;;23.53;38.97
76611;BME280;65503;48.534;9.062;2023-04-29T11:04:12;96929.00;;;24.12;39.76
76611;BME280;65503;48.534;9.062;2023-04-29T11:06:41;96933.28;;;24.30;38.76
76611;BME280;65503;48.534;9.062;2023-04-29T11:09:13;96931.34;;;24.05;37.76
76611;BME280;65503;48.534;9.062;2023-04-29T11:11:48;96930.22;;;23.54;39.15
76611;BME280;65503;48.534;9.062;2023-04-29T11:14:21;96929.28;;;23.11;38.93
76611;BME280;65503;48.534;9.062;2023-04-29T11:16:55;96924.31;;;23.35;40.12
76611;BME280;65503;48.534;9.062;2023-04-29T11:19:24;96913.16;;;23.67;37.79
76611;BME280;65503;48.534;9.062;2023-04-29T11:22:10;96920.75;;;23.82;37.09
76611;BME280;65503;48.534;9.062;2023-04-29T11:24:57;96913.00;;;23.55;37.91
76611;BME280;65503;48.534;9.062;2023-04-29T11:27:29;96901.38;;;23.29;37.52
76611;BME280;65503;48.534;9.062;2023-04-29T11:29:57;96900.75;;;22.53;37.97
76611;BME280;65503;48.534;9.062;2023-04-29T11:32:29;96904.28;;;22.40;40.12
76611;BME280;65503;48.534;9.062;2023-04-29T11:35:16;96910.75;;;22.16;39.74
76611;BME280;65503;48.534;9.062;2023-04-29T11:37:44;96914.78;;;22.05;40.88
76611;BME280;65503;48.534;9.062;2023-04-29T11:40:12;96913.81;;;22.01;41.71
76611;BME280;65503;48.534;9.062;2023-04-29T11:42:44;96914.25;;;21.81;40.90
76611;BME280;65503;48.534;9.062;2023-04-29T11:45:11;96912.66;;;21.80;42.03
76611;BME280;65503;48.534;9.062;2023-04-29T11:47:42;96911.78;;;22.07;41.28
76611;BME280;65503;48.534;9.062;2023-04-29T11:50:09;96916.84;;;22.31;40.82
76611;BME280;65503;48.534;9.062;2023-04-29T11:52:37;96919.50;;;22.53;40.43
76611;BME280;65503;48.534;9.062;2023-04-29T11:55:05;96919.81;;;22.51;39.72
76611;BME280;65503;48.534;9.062;2023-04-29T11:57:31;96923.13;;;22.79;39.88
76611;BME280;65503;48.534;9.062;2023-04-29T11:59:58;96912.66;;;22.69;39.80
76611;BME280;65503;48.534;9.062;2023-04-29T12:02:31;96918.13;;;22.55;39.44
76611;BME280;65503;48.534;9.062;2023-04-29T12:04:59;96918.75;;;21.94;39.51
76611;BME280;65503;48.534;9.062;2023-04-29T12:07:30;96918.50;;;22.18;41.05
76611;BME280;65503;48.534;9.062;2023-04-29T12:09:57;96910.22;;;22.81;40.14
76611;BME280;65503;48.534;9.062;2023-04-29T12:12:23;96921.75;;;23.30;39.13
76611;BME280;65503;48.534;9.062;2023-04-29T12:14:50;96925.97;;;23.14;38.16
76611;BME280;65503;48.534;9.062;2023-04-29T12:17:18;96924.00;;;22.66;38.28
76611;BME280;65503;48.534;9.062;2023-04-29T12:19:45;96923.00;;;22.31;39.06
76611;BME280;65503;48.534;9.062;2023-04-29T12:22:13;96922.25;;;22.39;39.50
76611;BME280;65503;48.534;9.062;2023-04-29T12:24:40;96909.25;;;22.77;38.80
76611;BME280;65503;48.534;9.062;2023-04-29T12:27:07;96913.72;;;22.90;38.53
76611;BME280;65503;48.534;9.062;2023-04-29T12:29:35;96915.53;;;22.73;38.76
76611;BME280;65503;48.534;9.062;2023-04-29T12:32:02;96919.00;;;22.73;40.01
76611;BME280;65503;48.534;9.062;2023-04-29T12:34:30;96922.41;;;22.65;38.56
76611;BME280;65503;48.534;9.062;2023-04-29T12:36:58;96914.13;;;22.75;38.86
76611;BME280;65503;48.534;9.062;2023-04-29T12:39:25;96922.41;;;22.96;38.71
76611;BME280;65503;48.534;9.062;2023-04-29T12:41:59;96914.69;;;22.94;37.60
76611;BME280;65503;48.534;9.062;2023-04-29T12:44:34;96918.75;;;22.83;37.54
76611;BME280;65503;48.534;9.062;2023-04-29T12:47:11;96917.50;;;23.37;39.14
76611;BME280;65503;48.534;9.062;2023-04-29T12:49:43;96927.22;;;23.64;37.96
76611;BME280;65503;48.534;9.062;2023-04-29T12:52:10;96930.41;;;23.83;36.58
76611;BME280;65503;48.534;9.062;2023-04-29T12:54:37;96918.09;;;23.74;36.26
76611;BME280;65503;48.534;9.062;2023-04-29T12:57:06;96916.91;;;22.70;37.27
76611;BME280;65503;48.534;9.062;2023-04-29T12:59:33;96915.09;;;22.57;38.45
76611;BME280;65503;48.534;9.062;2023-04-29T13:02:00;96913.28;;;22.66;39.58
76611;BME280;65503;48.534;9.062;2023-04-29T13:04:27;96922.63;;;22.46;38.18
76611;BME280;65503;48.534;9.062;2023-04-29T13:06:54;96928.78;;;22.24;38.39
76611;BME280;65503;48.534;9.062;2023-04-29T13:09:25;96923.91;;;22.04;38.20
76611;BME280;65503;48.534;9.062;2023-04-29T13:11:52;96918.28;;;21.92;40.30
76611;BME280;65503;48.534;9.062;2023-04-29T13:14:18;96925.78;;;21.68;39.69